sensor_id;sensor_type;location;lat;lon;timestamp;P1;durP1;ratioP1;P2;durP2;ratioP2
18336;SDS011;9294;51.106;7.028;2023-04-25T00:01:18;2.95;;;2.25;;
18336;SDS011;9294;51.106;7.028;2023-04-25T00:03:46;2.13;;;2.00;;
18336;SDS011;9294;51.106;7.028;2023-04-25T00:06:13;1.60;;;1.60;;
18336;SDS011;9294;51.106;7.028;2023-04-25T00:08:40;1.95;;;1.95;;
18336;SDS011;9294;51.106;7.028;2023-04-25T00:11:07;2.00;;;1.90;;
18336;SDS011;9294;51.106;7.028;2023-04-25T00:13:33;1.85;;;1.80;;
18336;SDS011;9294;51.106;7.028;2023-04-25T00:16:00;2.08;;;1.98;;
18336;SDS011;9294;51.106;7.028;2023-04-25T00:18:28;1.95;;;1.92;;
18336;SDS011;9294;51.106;7.028;2023-04-25T00:20:55;2.05;;;1.95;;
18336;SDS011;9294;51.106;7.028;2023-04-25T00:23:22;1.52;;;1.52;;
18336;SDS011;9294;51.106;7.028;2023-04-25T00:25:49;1.90;;;1.80;;
18336;SDS011;9294;51.106;7.028;2023-04-25T00:28:16;1.98;;;1.88;;
18336;SDS011;9294;51.106;7.028;2023-04-25T00:30:43;1.70;;;1.70;;
18336;SDS011;9294;51.106;7.028;2023-04-25T00:33:09;1.60;;;1.50;;
18336;SDS011;9294;51.106;7.028;2023-04-25T00:35:38;1.75;;;1.65;;
18336;SDS011;9294;51.106;7.028;2023-04-25T00:38:04;1.92;;;1.85;;
18336;SDS011;9294;51.106;7.028;2023-04-25T00:40:31;2.15;;;2.05;;
18336;SDS011;9294;51.106;7.028;2023-04-25T00:42:58;1.83;;;1.73;;
18336;SDS011;9294;51.106;7.028;2023-04-25T00:45:27;2.08;;;1.98;;
18336;SDS011;9294;51.106;7.028;2023-04-25T00:47:55;3.03;;;1.73;;
18336;SDS011;9294;51.106;7.028;2023-04-25T00:50:22;1.70;;;1.60;;
18336;SDS011;9294;51.106;7.028;2023-04-25T00:52:50;1.95;;;1.80;;
18336;SDS011;9294;51.106;7.028;2023-04-25T00:55:18;1.92;;;1.83;;
18336;SDS011;9294;51.106;7.028;2023-04-25T00:57:45;2.25;;;2.10;;
18336;SDS011;9294;51.106;7.028;2023-04-25T01:00:13;1.67;;;1.67;;
18336;SDS011;9294;51.106;7.028;2023-04-25T01:02:40;1.67;;;1.67;;
18336;SDS011;9294;51.106;7.028;2023-04-25T01:05:07;2.17;;;2.08;;
18336;SDS011;9294;51.106;7.028;2023-04-25T01:07:34;1.60;;;1.50;;
18336;SDS011;9294;51.106;7.028;2023-04-25T01:10:03;2.10;;;1.95;;
18336;SDS011;9294;51.106;7.028;2023-04-25T01:12:31;2.10;;;2.00;;
18336;SDS011;9294;51.106;7.028;2023-04-25T01:14:58;1.80;;;1.80;;
18336;SDS011;9294;51.106;7.028;2023-04-25T01:17:24;1.65;;;1.55;;
18336;SDS011;9294;51.106;7.028;2023-04-25T01:19:52;2.08;;;1.98;;
18336;SDS011;9294;51.106;7.028;2023-04-25T01:22:20;2.03;;;1.92;;
18336;SDS011;9294;51.106;7.028;2023-04-25T01:24:47;2.30;;;2.20;;
18336;SDS011;9294;51.106;7.028;2023-04-25T01:27:14;2.15;;;2.00;;
18336;SDS011;9294;51.106;7.028;2023-04-25T01:29:41;2.75;;;2.30;;
18336;SDS011;9294;51.106;7.028;2023-04-25T01:32:08;1.90;;;1.80;;
18336;SDS011;9294;51.106;7.028;2023-04-25T01:34:35;1.80;;;1.80;;
18336;SDS011;9294;51.106;7.028;2023-04-25T01:37:02;1.70;;;1.70;;
18336;SDS011;9294;51.106;7.028;2023-04-25T01:39:30;2.33;;;2.20;;
18336;SDS011;9294;51.106;7.028;2023-04-25T01:41:58;1.90;;;1.80;;
18336;SDS011;9294;51.106;7.028;2023-04-25T01:44:25;2.22;;;1.85;;
18336;SDS011;9294;51.106;7.028;2023-04-25T01:46:53;1.95;;;1.85;;
18336;SDS011;9294;51.106;7.028;2023-04-25T01:49:19;1.90;;;1.80;;
18336;SDS011;9294;51.106;7.028;2023-04-25T01:51:46;2.63;;;2.10;;
18336;SDS011;9294;51.106;7.028;2023-04-25T01:54:13;1.67;;;1.55;;
18336;SDS011;9294;51.106;7.028;2023-04-25T01:56:41;2.10;;;2.00;;
18336;SDS011;9294;51.106;7.028;2023-04-25T01:59:08;1.95;;;1.85;;
18336;SDS011;9294;51.106;7.028;2023-04-25T02:01:34;1.98;;;1.88;;
18336;SDS011;9294;51.106;7.028;2023-04-25T02:04:01;2.35;;;2.15;;
18336;SDS011;9294;51.106;7.028;2023-04-25T02:06:28;2.42;;;2.22;;
18336;SDS011;9294;51.106;7.028;2023-04-25T02:08:55;2.13;;;2.03;;
18336;SDS011;9294;51.106;7.028;2023-04-25T02:11:22;1.90;;;1.90;;
18336;SDS011;9294;51.106;7.028;2023-04-25T02:13:50;2.22;;;2.03;;
18336;SDS011;9294;51.106;7.028;2023-04-25T02:16:17;2.10;;;2.00;;
18336;SDS011;9294;51.106;7.028;2023-04-25T02:18:44;1.83;;;1.73;;
18336;SDS011;9294;51.106;7.028;2023-04-25T02:21:11;1.70;;;1.70;;
18336;SDS011;9294;51.106;7.028;2023-04-25T02:23:37;2.08;;;1.98;;
18336;SDS011;9294;51.106;7.028;2023-04-25T02:26:04;1.70;;;1.65;;
18336;SDS011;9294;51.106;7.028;2023-04-25T02:28:31;2.17;;;2.08;;
18336;SDS011;9294;51.106;7.028;2023-04-25T02:30:59;2.00;;;1.90;;
18336;SDS011;9294;51.106;7.028;2023-04-25T02:33:26;2.13;;;2.03;;
18336;SDS011;9294;51.106;7.028;2023-04-25T02:35:53;1.98;;;1.88;;
18336;SDS011;9294;51.106;7.028;2023-04-25T02:38:19;2.28;;;2.15;;
18336;SDS011;9294;51.106;7.028;2023-04-25T02:40:46;2.20;;;2.10;;
18336;SDS011;9294;51.106;7.028;2023-04-25T02:43:13;2.63;;;2.42;;
18336;SDS011;9294;51.106;7.028;2023-04-25T02:45:41;2.10;;;2.00;;
18336;SDS011;9294;51.106;7.028;2023-04-25T02:48:09;1.77;;;1.77;;
18336;SDS011;9294;51.106;7.028;2023-04-25T02:50:35;2.20;;;2.10;;
18336;SDS011;9294;51.106;7.028;2023-04-25T02:53:02;1.85;;;1.80;;
18336;SDS011;9294;51.106;7.028;2023-04-25T02:55:29;1.85;;;1.75;;
18336;SDS011;9294;51.106;7.028;2023-04-25T02:57:56;2.00;;;1.90;;
18336;SDS011;9294;51.106;7.028;2023-04-25T03:00:22;1.98;;;1.88;;
18336;SDS011;9294;51.106;7.028;2023-04-25T03:02:49;2.50;;;2.33;;
18336;SDS011;9294;51.106;7.028;2023-04-25T03:05:18;2.00;;;1.90;;
18336;SDS011;9294;51.106;7.028;2023-04-25T03:07:44;2.05;;;1.98;;
18336;SDS011;9294;51.106;7.028;2023-04-25T03:10:11;2.42;;;2.33;;
18336;SDS011;9294;51.106;7.028;2023-04-25T03:12:38;2.40;;;2.13;;
18336;SDS011;9294;51.106;7.028;2023-04-25T03:15:05;2.03;;;1.92;;
18336;SDS011;9294;51.106;7.028;2023-04-25T03:17:32;1.98;;;1.88;;
18336;SDS011;9294;51.106;7.028;2023-04-25T03:19:59;2.70;;;2.50;;
18336;SDS011;9294;51.106;7.028;2023-04-25T03:22:27;2.17;;;2.08;;
18336;SDS011;9294;51.106;7.028;2023-04-25T03:24:54;2.20;;;2.10;;
18336;SDS011;9294;51.106;7.028;2023-04-25T03:27:21;3.47;;;2.28;;
18336;SDS011;9294;51.106;7.028;2023-04-25T03:29:48;1.90;;;1.80;;
18336;SDS011;9294;51.106;7.028;2023-04-25T03:32:15;1.77;;;1.67;;
18336;SDS011;9294;51.106;7.028;2023-04-25T03:34:41;1.88;;;1.77;;
18336;SDS011;9294;51.106;7.028;2023-04-25T03:37:08;1.95;;;1.85;;
18336;SDS011;9294;51.106;7.028;2023-04-25T03:39:36;2.03;;;1.92;;
18336;SDS011;9294;51.106;7.028;2023-04-25T03:42:03;1.45;;;1.45;;
18336;SDS011;9294;51.106;7.028;2023-04-25T03:44:30;1.98;;;1.88;;
18336;SDS011;9294;51.106;7.028;2023-04-25T03:46:57;2.38;;;2.13;;
18336;SDS011;9294;51.106;7.028;2023-04-25T03:49:24;2.20;;;2.10;;
18336;SDS011;9294;51.106;7.028;2023-04-25T03:51:51;2.22;;;2.03;;
18336;SDS011;9294;51.106;7.028;2023-04-25T03:54:17;1.98;;;1.88;;
18336;SDS011;9294;51.106;7.028;2023-04-25T03:56:45;1.70;;;1.70;;
18336;SDS011;9294;51.106;7.028;2023-04-25T03:59:13;1.92;;;1.83;;
18336;SDS011;9294;51.106;7.028;2023-04-25T04:01:40;1.80;;;1.73;;
18336;SDS011;9294;51.106;7.028;2023-04-25T04:04:06;2.00;;;1.90;;
18336;SDS011;9294;51.106;7.028;2023-04-25T04:06:33;1.80;;;1.63;;
18336;SDS011;9294;51.106;7.028;2023-04-25T04:09:01;2.22;;;2.13;;
18336;SDS011;9294;51.106;7.028;2023-04-25T04:11:28;2.22;;;2.13;;
18336;SDS011;9294;51.106;7.028;2023-04-25T04:13:57;1.98;;;1.88;;
18336;SDS011;9294;51.106;7.028;2023-04-25T04:16:24;2.38;;;2.28;;
18336;SDS011;9294;51.106;7.028;2023-04-25T04:18:51;2.30;;;2.20;;
18336;SDS011;9294;51.106;7.028;2023-04-25T04:21:17;1.95;;;1.80;;
18336;SDS011;9294;51.106;7.028;2023-04-25T04:23:44;1.88;;;1.70;;
18336;SDS011;9294;51.106;7.028;2023-04-25T04:26:11;2.15;;;2.00;;
18336;SDS011;9294;51.106;7.028;2023-04-25T04:28:38;1.90;;;1.80;;
18336;SDS011;9294;51.106;7.028;2023-04-25T04:31:07;2.20;;;1.80;;
18336;SDS011;9294;51.106;7.028;2023-04-25T04:33:34;1.98;;;1.88;;
18336;SDS011;9294;51.106;7.028;2023-04-25T04:36:01;2.00;;;1.90;;
18336;SDS011;9294;51.106;7.028;2023-04-25T04:38:28;1.75;;;1.65;;
18336;SDS011;9294;51.106;7.028;2023-04-25T04:40:55;2.03;;;1.92;;
18336;SDS011;9294;51.106;7.028;2023-04-25T04:43:22;1.80;;;1.70;;
18336;SDS011;9294;51.106;7.028;2023-04-25T04:45:49;2.03;;;1.92;;
18336;SDS011;9294;51.106;7.028;2023-04-25T04:48:17;2.00;;;1.90;;
18336;SDS011;9294;51.106;7.028;2023-04-25T04:50:44;1.88;;;1.77;;
18336;SDS011;9294;51.106;7.028;2023-04-25T04:53:11;1.77;;;1.67;;
18336;SDS011;9294;51.106;7.028;2023-04-25T04:55:39;2.03;;;1.92;;
18336;SDS011;9294;51.106;7.028;2023-04-25T04:58:06;2.00;;;1.90;;
18336;SDS011;9294;51.106;7.028;2023-04-25T05:00:33;2.03;;;1.92;;
18336;SDS011;9294;51.106;7.028;2023-04-25T05:02:59;1.70;;;1.70;;
18336;SDS011;9294;51.106;7.028;2023-04-25T05:05:28;2.05;;;1.98;;
18336;SDS011;9294;51.106;7.028;2023-04-25T05:07:54;2.42;;;1.70;;
18336;SDS011;9294;51.106;7.028;2023-04-25T05:10:21;1.45;;;1.45;;
18336;SDS011;9294;51.106;7.028;2023-04-25T05:12:48;2.70;;;2.22;;
18336;SDS011;9294;51.106;7.028;2023-04-25T05:15:14;1.95;;;1.83;;
18336;SDS011;9294;51.106;7.028;2023-04-25T05:17:41;2.00;;;1.90;;
18336;SDS011;9294;51.106;7.028;2023-04-25T05:20:08;1.52;;;1.52;;
18336;SDS011;9294;51.106;7.028;2023-04-25T05:22:36;2.30;;;2.10;;
18336;SDS011;9294;51.106;7.028;2023-04-25T05:25:03;2.25;;;2.10;;
18336;SDS011;9294;51.106;7.028;2023-04-25T05:27:31;2.42;;;1.77;;
18336;SDS011;9294;51.106;7.028;2023-04-25T05:29:58;1.90;;;1.80;;
18336;SDS011;9294;51.106;7.028;2023-04-25T05:32:25;3.10;;;2.35;;
18336;SDS011;9294;51.106;7.028;2023-04-25T05:34:52;2.50;;;1.92;;
18336;SDS011;9294;51.106;7.028;2023-04-25T05:37:19;2.53;;;2.20;;
18336;SDS011;9294;51.106;7.028;2023-04-25T05:39:47;3.70;;;2.10;;
18336;SDS011;9294;51.106;7.028;2023-04-25T05:42:13;2.30;;;2.10;;
18336;SDS011;9294;51.106;7.028;2023-04-25T05:44:40;2.35;;;1.88;;
18336;SDS011;9294;51.106;7.028;2023-04-25T05:47:07;3.20;;;1.92;;
18336;SDS011;9294;51.106;7.028;2023-04-25T05:49:33;4.10;;;2.13;;
18336;SDS011;9294;51.106;7.028;2023-04-25T05:52:00;4.13;;;2.22;;
18336;SDS011;9294;51.106;7.028;2023-04-25T05:54:27;2.08;;;1.98;;
18336;SDS011;9294;51.106;7.028;2023-04-25T05:56:55;1.90;;;1.90;;
18336;SDS011;9294;51.106;7.028;2023-04-25T05:59:22;3.00;;;1.90;;
18336;SDS011;9294;51.106;7.028;2023-04-25T06:01:49;2.00;;;1.90;;
18336;SDS011;9294;51.106;7.028;2023-04-25T06:04:16;2.17;;;1.88;;
18336;SDS011;9294;51.106;7.028;2023-04-25T06:06:43;2.15;;;2.05;;
18336;SDS011;9294;51.106;7.028;2023-04-25T06:09:10;2.33;;;2.13;;
18336;SDS011;9294;51.106;7.028;2023-04-25T06:11:37;3.33;;;2.40;;
18336;SDS011;9294;51.106;7.028;2023-04-25T06:14:05;3.30;;;2.17;;
18336;SDS011;9294;51.106;7.028;2023-04-25T06:16:32;2.17;;;2.00;;
18336;SDS011;9294;51.106;7.028;2023-04-25T06:18:59;2.22;;;2.00;;
18336;SDS011;9294;51.106;7.028;2023-04-25T06:21:26;6.18;;;2.50;;
18336;SDS011;9294;51.106;7.028;2023-04-25T06:23:53;2.70;;;2.13;;
18336;SDS011;9294;51.106;7.028;2023-04-25T06:26:19;5.63;;;2.47;;
18336;SDS011;9294;51.106;7.028;2023-04-25T06:28:46;3.67;;;2.10;;
18336;SDS011;9294;51.106;7.028;2023-04-25T06:31:14;2.75;;;2.50;;
18336;SDS011;9294;51.106;7.028;2023-04-25T06:33:41;8.60;;;2.47;;
18336;SDS011;9294;51.106;7.028;2023-04-25T06:36:07;3.17;;;2.35;;
18336;SDS011;9294;51.106;7.028;2023-04-25T06:38:34;4.90;;;3.15;;
18336;SDS011;9294;51.106;7.028;2023-04-25T06:41:01;4.47;;;2.42;;
18336;SDS011;9294;51.106;7.028;2023-04-25T06:43:28;6.43;;;2.28;;
18336;SDS011;9294;51.106;7.028;2023-04-25T06:45:57;3.92;;;2.22;;
18336;SDS011;9294;51.106;7.028;2023-04-25T06:48:26;7.45;;;3.28;;
18336;SDS011;9294;51.106;7.028;2023-04-25T06:50:52;5.05;;;2.58;;
18336;SDS011;9294;51.106;7.028;2023-04-25T06:53:19;7.60;;;2.78;;
18336;SDS011;9294;51.106;7.028;2023-04-25T06:55:46;13.43;;;3.38;;
18336;SDS011;9294;51.106;7.028;2023-04-25T06:58:13;13.43;;;3.20;;
18336;SDS011;9294;51.106;7.028;2023-04-25T07:00:39;8.20;;;2.90;;
18336;SDS011;9294;51.106;7.028;2023-04-25T07:03:06;4.38;;;2.72;;
18336;SDS011;9294;51.106;7.028;2023-04-25T07:05:34;5.75;;;2.80;;
18336;SDS011;9294;51.106;7.028;2023-04-25T07:08:01;6.20;;;2.55;;
18336;SDS011;9294;51.106;7.028;2023-04-25T07:10:28;7.85;;;2.97;;
18336;SDS011;9294;51.106;7.028;2023-04-25T07:12:55;5.00;;;2.78;;
18336;SDS011;9294;51.106;7.028;2023-04-25T07:15:22;4.50;;;2.70;;
18336;SDS011;9294;51.106;7.028;2023-04-25T07:17:48;8.77;;;2.67;;
18336;SDS011;9294;51.106;7.028;2023-04-25T07:20:15;7.32;;;2.95;;
18336;SDS011;9294;51.106;7.028;2023-04-25T07:22:43;8.52;;;3.20;;
18336;SDS011;9294;51.106;7.028;2023-04-25T07:25:10;5.38;;;2.97;;
18336;SDS011;9294;51.106;7.028;2023-04-25T07:27:36;6.53;;;2.90;;
18336;SDS011;9294;51.106;7.028;2023-04-25T07:30:04;5.63;;;2.63;;
18336;SDS011;9294;51.106;7.028;2023-04-25T07:32:32;4.30;;;3.08;;
18336;SDS011;9294;51.106;7.028;2023-04-25T07:34:59;2.90;;;2.20;;
18336;SDS011;9294;51.106;7.028;2023-04-25T07:37:26;4.47;;;2.90;;
18336;SDS011;9294;51.106;7.028;2023-04-25T07:39:54;6.40;;;2.90;;
18336;SDS011;9294;51.106;7.028;2023-04-25T07:42:21;2.65;;;2.38;;
18336;SDS011;9294;51.106;7.028;2023-04-25T07:44:48;3.97;;;2.50;;
18336;SDS011;9294;51.106;7.028;2023-04-25T07:47:15;4.20;;;2.40;;
18336;SDS011;9294;51.106;7.028;2023-04-25T07:49:43;3.28;;;2.10;;
18336;SDS011;9294;51.106;7.028;2023-04-25T07:52:10;4.30;;;2.63;;
18336;SDS011;9294;51.106;7.028;2023-04-25T07:54:37;5.07;;;2.85;;
18336;SDS011;9294;51.106;7.028;2023-04-25T07:57:05;3.42;;;2.67;;
18336;SDS011;9294;51.106;7.028;2023-04-25T07:59:32;4.97;;;2.80;;
18336;SDS011;9294;51.106;7.028;2023-04-25T08:01:59;6.93;;;2.58;;
18336;SDS011;9294;51.106;7.028;2023-04-25T08:04:27;4.20;;;2.60;;
18336;SDS011;9294;51.106;7.028;2023-04-25T08:06:54;4.10;;;2.50;;
18336;SDS011;9294;51.106;7.028;2023-04-25T08:09:21;4.13;;;2.65;;
18336;SDS011;9294;51.106;7.028;2023-04-25T08:11:48;6.78;;;2.88;;
18336;SDS011;9294;51.106;7.028;2023-04-25T08:14:16;7.80;;;2.40;;
18336;SDS011;9294;51.106;7.028;2023-04-25T08:16:43;3.65;;;2.67;;
18336;SDS011;9294;51.106;7.028;2023-04-25T08:19:10;3.10;;;2.80;;
18336;SDS011;9294;51.106;7.028;2023-04-25T08:21:37;4.32;;;2.70;;
18336;SDS011;9294;51.106;7.028;2023-04-25T08:24:03;2.65;;;2.30;;
18336;SDS011;9294;51.106;7.028;2023-04-25T08:26:30;5.00;;;2.70;;
18336;SDS011;9294;51.106;7.028;2023-04-25T08:28:57;5.70;;;2.85;;
18336;SDS011;9294;51.106;7.028;2023-04-25T08:31:25;3.47;;;2.55;;
18336;SDS011;9294;51.106;7.028;2023-04-25T08:33:52;4.38;;;2.55;;
18336;SDS011;9294;51.106;7.028;2023-04-25T08:36:19;3.20;;;2.50;;
18336;SDS011;9294;51.106;7.028;2023-04-25T08:38:45;5.90;;;2.38;;
18336;SDS011;9294;51.106;7.028;2023-04-25T08:41:12;3.53;;;2.85;;
18336;SDS011;9294;51.106;7.028;2023-04-25T08:43:40;6.68;;;2.40;;
18336;SDS011;9294;51.106;7.028;2023-04-25T08:46:09;3.13;;;2.67;;
18336;SDS011;9294;51.106;7.028;2023-04-25T08:48:38;4.13;;;2.97;;
18336;SDS011;9294;51.106;7.028;2023-04-25T08:51:07;3.88;;;3.13;;
18336;SDS011;9294;51.106;7.028;2023-04-25T08:53:34;7.85;;;3.05;;
18336;SDS011;9294;51.106;7.028;2023-04-25T08:56:01;3.25;;;2.92;;
18336;SDS011;9294;51.106;7.028;2023-04-25T08:58:28;5.63;;;2.80;;
18336;SDS011;9294;51.106;7.028;2023-04-25T09:00:55;3.50;;;2.72;;
18336;SDS011;9294;51.106;7.028;2023-04-25T09:03:22;6.82;;;2.88;;
18336;SDS011;9294;51.106;7.028;2023-04-25T09:05:50;3.00;;;2.50;;
18336;SDS011;9294;51.106;7.028;2023-04-25T09:08:17;7.38;;;3.13;;
18336;SDS011;9294;51.106;7.028;2023-04-25T09:10:44;5.10;;;2.65;;
18336;SDS011;9294;51.106;7.028;2023-04-25T09:13:11;3.58;;;2.72;;
18336;SDS011;9294;51.106;7.028;2023-04-25T09:15:46;6.15;;;3.13;;
18336;SDS011;9294;51.106;7.028;2023-04-25T09:18:21;5.00;;;3.13;;
18336;SDS011;9294;51.106;7.028;2023-04-25T09:20:51;7.80;;;3.35;;
18336;SDS011;9294;51.106;7.028;2023-04-25T09:23:19;4.00;;;3.08;;
18336;SDS011;9294;51.106;7.028;2023-04-25T09:25:46;6.88;;;3.20;;
18336;SDS011;9294;51.106;7.028;2023-04-25T09:28:14;3.35;;;2.88;;
18336;SDS011;9294;51.106;7.028;2023-04-25T09:30:41;6.50;;;3.83;;
18336;SDS011;9294;51.106;7.028;2023-04-25T09:33:08;4.03;;;2.65;;
18336;SDS011;9294;51.106;7.028;2023-04-25T09:35:36;3.30;;;3.00;;
18336;SDS011;9294;51.106;7.028;2023-04-25T09:38:08;6.28;;;3.63;;
18336;SDS011;9294;51.106;7.028;2023-04-25T09:40:39;6.35;;;3.47;;
18336;SDS011;9294;51.106;7.028;2023-04-25T09:43:08;10.00;;;3.42;;
18336;SDS011;9294;51.106;7.028;2023-04-25T09:45:40;5.28;;;2.97;;
18336;SDS011;9294;51.106;7.028;2023-04-25T09:48:10;5.70;;;3.10;;
18336;SDS011;9294;51.106;7.028;2023-04-25T09:50:37;4.03;;;3.05;;
18336;SDS011;9294;51.106;7.028;2023-04-25T09:53:05;6.78;;;3.20;;
18336;SDS011;9294;51.106;7.028;2023-04-25T09:55:34;3.45;;;2.80;;
18336;SDS011;9294;51.106;7.028;2023-04-25T09:58:04;4.90;;;2.90;;
18336;SDS011;9294;51.106;7.028;2023-04-25T10:00:32;4.03;;;3.05;;
18336;SDS011;9294;51.106;7.028;2023-04-25T10:03:00;3.20;;;2.65;;
18336;SDS011;9294;51.106;7.028;2023-04-25T10:05:30;4.03;;;3.20;;
18336;SDS011;9294;51.106;7.028;2023-04-25T10:07:58;3.17;;;2.60;;
18336;SDS011;9294;51.106;7.028;2023-04-25T10:10:28;4.97;;;2.92;;
18336;SDS011;9294;51.106;7.028;2023-04-25T10:13:02;4.30;;;2.97;;
18336;SDS011;9294;51.106;7.028;2023-04-25T10:15:30;2.88;;;2.55;;
18336;SDS011;9294;51.106;7.028;2023-04-25T10:17:57;3.33;;;3.03;;
18336;SDS011;9294;51.106;7.028;2023-04-25T10:20:26;4.22;;;2.83;;
18336;SDS011;9294;51.106;7.028;2023-04-25T10:22:53;6.43;;;3.13;;
18336;SDS011;9294;51.106;7.028;2023-04-25T10:25:23;3.95;;;2.83;;
18336;SDS011;9294;51.106;7.028;2023-04-25T10:27:50;3.50;;;2.60;;
18336;SDS011;9294;51.106;7.028;2023-04-25T10:30:19;4.20;;;2.70;;
18336;SDS011;9294;51.106;7.028;2023-04-25T10:32:45;3.40;;;2.40;;
18336;SDS011;9294;51.106;7.028;2023-04-25T10:35:15;4.13;;;2.80;;
18336;SDS011;9294;51.106;7.028;2023-04-25T10:37:56;3.47;;;3.05;;
18336;SDS011;9294;51.106;7.028;2023-04-25T10:40:24;5.25;;;2.80;;
18336;SDS011;9294;51.106;7.028;2023-04-25T10:42:51;3.03;;;2.40;;
18336;SDS011;9294;51.106;7.028;2023-04-25T10:45:19;4.32;;;2.40;;
18336;SDS011;9294;51.106;7.028;2023-04-25T10:47:46;4.28;;;2.40;;
18336;SDS011;9294;51.106;7.028;2023-04-25T10:50:14;4.97;;;3.13;;
18336;SDS011;9294;51.106;7.028;2023-04-25T10:52:41;5.65;;;3.10;;
18336;SDS011;9294;51.106;7.028;2023-04-25T10:55:08;8.07;;;2.85;;
18336;SDS011;9294;51.106;7.028;2023-04-25T10:57:39;7.30;;;2.67;;
18336;SDS011;9294;51.106;7.028;2023-04-25T11:00:13;3.90;;;2.33;;
18336;SDS011;9294;51.106;7.028;2023-04-25T11:02:44;4.43;;;2.35;;
18336;SDS011;9294;51.106;7.028;2023-04-25T11:05:20;6.30;;;2.53;;
18336;SDS011;9294;51.106;7.028;2023-04-25T11:07:50;5.53;;;2.90;;
18336;SDS011;9294;51.106;7.028;2023-04-25T11:10:18;7.72;;;3.08;;
18336;SDS011;9294;51.106;7.028;2023-04-25T11:12:45;5.22;;;2.53;;
18336;SDS011;9294;51.106;7.028;2023-04-25T11:15:12;3.70;;;2.70;;
18336;SDS011;9294;51.106;7.028;2023-04-25T11:17:39;3.30;;;2.55;;
18336;SDS011;9294;51.106;7.028;2023-04-25T11:20:08;3.92;;;2.80;;
18336;SDS011;9294;51.106;7.028;2023-04-25T11:22:37;5.15;;;2.40;;
18336;SDS011;9294;51.106;7.028;2023-04-25T11:25:04;4.05;;;2.47;;
18336;SDS011;9294;51.106;7.028;2023-04-25T11:27:32;6.93;;;2.63;;
18336;SDS011;9294;51.106;7.028;2023-04-25T11:30:06;3.75;;;2.55;;
18336;SDS011;9294;51.106;7.028;2023-04-25T11:32:36;3.55;;;2.45;;
18336;SDS011;9294;51.106;7.028;2023-04-25T11:35:03;5.07;;;2.65;;
18336;SDS011;9294;51.106;7.028;2023-04-25T11:37:32;8.45;;;2.60;;
18336;SDS011;9294;51.106;7.028;2023-04-25T11:39:59;5.45;;;2.60;;
18336;SDS011;9294;51.106;7.028;2023-04-25T11:42:26;7.65;;;2.72;;
18336;SDS011;9294;51.106;7.028;2023-04-25T11:44:52;7.07;;;2.83;;
18336;SDS011;9294;51.106;7.028;2023-04-25T11:47:19;3.40;;;2.60;;
18336;SDS011;9294;51.106;7.028;2023-04-25T11:49:46;10.75;;;2.95;;
18336;SDS011;9294;51.106;7.028;2023-04-25T11:52:12;3.80;;;2.50;;
18336;SDS011;9294;51.106;7.028;2023-04-25T11:54:40;4.45;;;2.55;;
18336;SDS011;9294;51.106;7.028;2023-04-25T11:57:07;9.13;;;2.28;;
18336;SDS011;9294;51.106;7.028;2023-04-25T11:59:34;7.50;;;2.42;;
18336;SDS011;9294;51.106;7.028;2023-04-25T12:02:01;11.40;;;2.28;;
18336;SDS011;9294;51.106;7.028;2023-04-25T12:04:29;3.63;;;3.33;;
18336;SDS011;9294;51.106;7.028;2023-04-25T12:06:57;4.95;;;2.90;;
18336;SDS011;9294;51.106;7.028;2023-04-25T12:09:27;7.28;;;2.80;;
18336;SDS011;9294;51.106;7.028;2023-04-25T12:11:58;16.33;;;3.17;;
18336;SDS011;9294;51.106;7.028;2023-04-25T12:14:28;12.32;;;3.33;;
18336;SDS011;9294;51.106;7.028;2023-04-25T12:16:56;14.57;;;3.28;;
18336;SDS011;9294;51.106;7.028;2023-04-25T12:19:24;14.60;;;3.75;;
18336;SDS011;9294;51.106;7.028;2023-04-25T12:21:51;19.80;;;2.88;;
18336;SDS011;9294;51.106;7.028;2023-04-25T12:24:21;7.47;;;2.95;;
18336;SDS011;9294;51.106;7.028;2023-04-25T12:26:50;10.13;;;3.22;;
18336;SDS011;9294;51.106;7.028;2023-04-25T12:29:23;8.85;;;2.88;;
18336;SDS011;9294;51.106;7.028;2023-04-25T12:31:51;5.30;;;2.42;;
18336;SDS011;9294;51.106;7.028;2023-04-25T12:34:19;3.65;;;2.33;;
18336;SDS011;9294;51.106;7.028;2023-04-25T12:36:46;5.25;;;2.55;;
18336;SDS011;9294;51.106;7.028;2023-04-25T12:39:17;4.78;;;2.55;;
18336;SDS011;9294;51.106;7.028;2023-04-25T12:41:44;7.40;;;2.53;;
18336;SDS011;9294;51.106;7.028;2023-04-25T12:44:12;4.80;;;2.60;;
18336;SDS011;9294;51.106;7.028;2023-04-25T12:46:40;6.88;;;2.50;;
18336;SDS011;9294;51.106;7.028;2023-04-25T12:49:07;9.10;;;2.63;;
18336;SDS011;9294;51.106;7.028;2023-04-25T12:51:34;6.10;;;2.38;;
18336;SDS011;9294;51.106;7.028;2023-04-25T12:54:01;8.25;;;2.92;;
18336;SDS011;9294;51.106;7.028;2023-04-25T12:56:29;2.80;;;1.85;;
18336;SDS011;9294;51.106;7.028;2023-04-25T12:58:56;5.30;;;2.53;;
18336;SDS011;9294;51.106;7.028;2023-04-25T13:01:23;11.60;;;3.00;;
18336;SDS011;9294;51.106;7.028;2023-04-25T13:03:51;4.10;;;2.40;;
18336;SDS011;9294;51.106;7.028;2023-04-25T13:06:19;6.28;;;2.15;;
18336;SDS011;9294;51.106;7.028;2023-04-25T13:08:46;6.05;;;2.60;;
18336;SDS011;9294;51.106;7.028;2023-04-25T13:11:13;7.05;;;2.55;;
18336;SDS011;9294;51.106;7.028;2023-04-25T13:13:40;5.45;;;2.72;;
18336;SDS011;9294;51.106;7.028;2023-04-25T13:16:07;7.40;;;2.45;;
18336;SDS011;9294;51.106;7.028;2023-04-25T13:18:34;6.18;;;2.42;;
18336;SDS011;9294;51.106;7.028;2023-04-25T13:21:02;5.22;;;2.92;;
18336;SDS011;9294;51.106;7.028;2023-04-25T13:23:29;3.50;;;2.13;;
18336;SDS011;9294;51.106;7.028;2023-04-25T13:25:56;4.53;;;2.35;;
18336;SDS011;9294;51.106;7.028;2023-04-25T13:28:23;2.70;;;2.50;;
18336;SDS011;9294;51.106;7.028;2023-04-25T13:30:50;6.72;;;2.88;;
18336;SDS011;9294;51.106;7.028;2023-04-25T13:33:17;8.75;;;2.45;;
18336;SDS011;9294;51.106;7.028;2023-04-25T13:35:43;5.35;;;2.17;;
18336;SDS011;9294;51.106;7.028;2023-04-25T13:38:13;5.00;;;2.25;;
18336;SDS011;9294;51.106;7.028;2023-04-25T13:40:39;10.13;;;2.83;;
18336;SDS011;9294;51.106;7.028;2023-04-25T13:43:06;4.55;;;2.17;;
18336;SDS011;9294;51.106;7.028;2023-04-25T13:45:33;7.80;;;2.72;;
18336;SDS011;9294;51.106;7.028;2023-04-25T13:47:59;6.65;;;2.65;;
18336;SDS011;9294;51.106;7.028;2023-04-25T13:50:26;7.53;;;2.20;;
18336;SDS011;9294;51.106;7.028;2023-04-25T13:52:53;4.20;;;2.17;;
18336;SDS011;9294;51.106;7.028;2023-04-25T13:55:21;3.03;;;2.08;;
18336;SDS011;9294;51.106;7.028;2023-04-25T13:57:48;7.57;;;2.53;;
18336;SDS011;9294;51.106;7.028;2023-04-25T14:00:15;4.40;;;2.30;;
18336;SDS011;9294;51.106;7.028;2023-04-25T14:02:42;4.82;;;2.40;;
18336;SDS011;9294;51.106;7.028;2023-04-25T14:05:09;3.60;;;1.98;;
18336;SDS011;9294;51.106;7.028;2023-04-25T14:07:36;2.60;;;2.05;;
18336;SDS011;9294;51.106;7.028;2023-04-25T14:10:03;5.95;;;2.60;;
18336;SDS011;9294;51.106;7.028;2023-04-25T14:12:32;5.50;;;2.47;;
18336;SDS011;9294;51.106;7.028;2023-04-25T14:14:59;2.83;;;2.17;;
18336;SDS011;9294;51.106;7.028;2023-04-25T14:17:25;2.53;;;2.33;;
18336;SDS011;9294;51.106;7.028;2023-04-25T14:19:53;2.55;;;1.90;;
18336;SDS011;9294;51.106;7.028;2023-04-25T14:22:19;4.78;;;2.42;;
18336;SDS011;9294;51.106;7.028;2023-04-25T14:24:46;3.47;;;1.60;;
18336;SDS011;9294;51.106;7.028;2023-04-25T14:27:13;3.75;;;1.80;;
18336;SDS011;9294;51.106;7.028;2023-04-25T14:29:41;2.33;;;1.73;;
18336;SDS011;9294;51.106;7.028;2023-04-25T14:32:07;3.22;;;1.50;;
18336;SDS011;9294;51.106;7.028;2023-04-25T14:34:35;2.13;;;1.70;;
18336;SDS011;9294;51.106;7.028;2023-04-25T14:37:02;1.77;;;1.55;;
18336;SDS011;9294;51.106;7.028;2023-04-25T14:39:28;2.13;;;1.63;;
18336;SDS011;9294;51.106;7.028;2023-04-25T14:41:55;1.77;;;1.67;;
18336;SDS011;9294;51.106;7.028;2023-04-25T14:44:22;2.55;;;2.08;;
18336;SDS011;9294;51.106;7.028;2023-04-25T14:46:50;3.90;;;1.77;;
18336;SDS011;9294;51.106;7.028;2023-04-25T14:49:17;4.90;;;1.58;;
18336;SDS011;9294;51.106;7.028;2023-04-25T14:51:44;1.92;;;1.60;;
18336;SDS011;9294;51.106;7.028;2023-04-25T14:54:11;1.85;;;1.73;;
18336;SDS011;9294;51.106;7.028;2023-04-25T14:56:38;3.42;;;1.67;;
18336;SDS011;9294;51.106;7.028;2023-04-25T14:59:04;1.70;;;1.60;;
18336;SDS011;9294;51.106;7.028;2023-04-25T15:01:31;2.92;;;2.17;;